Time;durP1;ratioP1;P1;durP2;ratioP2;P2;SDS_P1;SDS_P2;PMS_P1;PMS_P2;Temp;Humidity;BMP_temperature;BMP_pressure;BME280_temperature;BME280_humidity;BME280_pressure;Samples;Min_cycle;Max_cycle;Signal;HPM_P1;HPM_P2
2021/06/19 00:00:11;;;;;;;14.67;4.63;;;26.60;58.30;;;;;;6186850;23;20800;-88
2021/06/19 00:02:38;;;;;;;14.07;5.23;;;26.60;58.00;;;;;;6186718;23;20400;-88
2021/06/19 00:05:06;;;;;;;10.03;6.10;;;26.60;57.70;;;;;;6186480;23;20415;-88
2021/06/19 00:07:33;;;;;;;14.03;5.10;;;26.60;58.20;;;;;;6194258;23;20467;-88
2021/06/19 00:10:01;;;;;;;11.43;5.27;;;26.60;58.30;;;;;;6208456;23;20409;-88
2021/06/19 00:12:28;;;;;;;13.57;4.97;;;26.60;57.50;;;;;;6194380;23;20392;-88
2021/06/19 00:14:54;;;;;;;13.13;6.40;;;26.50;58.00;;;;;;6186423;23;20752;-89
2021/06/19 00:17:21;;;;;;;13.67;4.87;;;26.60;58.10;;;;;;6186615;23;20488;-89
2021/06/19 00:19:48;;;;;;;10.97;4.63;;;26.60;58.20;;;;;;6186590;23;20744;-88
2021/06/19 00:22:17;;;;;;;12.03;4.67;;;26.60;58.00;;;;;;6186793;23;20418;-88
2021/06/19 00:24:44;;;;;;;14.17;5.37;;;26.60;58.40;;;;;;6186915;23;20888;-88
2021/06/19 00:27:13;;;;;;;11.33;4.70;;;26.60;58.10;;;;;;6186339;23;20426;-88
2021/06/19 00:29:39;;;;;;;9.87;4.80;;;26.60;58.80;;;;;;6186503;23;20719;-88
2021/06/19 00:32:07;;;;;;;17.77;5.90;;;26.50;59.70;;;;;;6186890;23;20444;-88
2021/06/19 00:34:35;;;;;;;14.10;5.70;;;26.30;62.90;;;;;;6187010;23;20786;-88
2021/06/19 00:37:02;;;;;;;10.43;5.67;;;26.20;64.40;;;;;;6186576;23;20460;-88
2021/06/19 00:39:29;;;;;;;18.60;5.93;;;25.90;66.30;;;;;;6195992;23;20453;-88
2021/06/19 00:41:56;;;;;;;21.03;7.13;;;25.80;67.60;;;;;;6212755;23;20405;-88
2021/06/19 00:44:24;;;;;;;13.30;5.83;;;25.70;68.20;;;;;;6194000;23;21153;-89
2021/06/19 00:46:51;;;;;;;14.47;6.13;;;25.70;68.40;;;;;;6186674;23;20398;-88
2021/06/19 00:49:18;;;;;;;13.83;6.33;;;25.70;68.40;;;;;;6186401;23;20542;-88
2021/06/19 00:51:45;;;;;;;14.50;6.40;;;25.80;68.30;;;;;;6186563;23;20398;-89
2021/06/19 00:54:12;;;;;;;17.77;6.53;;;25.70;68.00;;;;;;6186571;23;20440;-89
2021/06/19 00:56:40;;;;;;;13.70;5.70;;;25.80;66.70;;;;;;6188298;23;20421;-88
2021/06/19 00:59:08;;;;;;;14.50;5.60;;;25.80;66.00;;;;;;6205567;23;20517;-89
2021/06/19 01:01:37;;;;;;;17.60;6.60;;;25.90;65.40;;;;;;6193000;23;20402;-89
2021/06/19 01:04:05;;;;;;;19.63;5.30;;;26.00;64.50;;;;;;6199589;23;20420;-88
2021/06/19 01:06:33;;;;;;;15.33;7.00;;;26.10;64.10;;;;;;6196335;23;20477;-88
2021/06/19 01:09:00;;;;;;;15.00;6.23;;;26.20;64.50;;;;;;6188284;23;20422;-88
2021/06/19 01:11:28;;;;;;;10.17;6.27;;;26.20;65.80;;;;;;6186790;23;20730;-89
2021/06/19 01:13:55;;;;;;;11.47;5.60;;;26.10;67.00;;;;;;6192577;23;20410;-89
2021/06/19 01:16:22;;;;;;;13.97;6.07;;;26.00;67.20;;;;;;6186874;23;20736;-88
2021/06/19 01:18:49;;;;;;;12.97;6.07;;;25.90;68.10;;;;;;6186332;23;20454;-88
2021/06/19 01:21:17;;;;;;;15.40;5.93;;;25.60;69.40;;;;;;6186531;23;20402;-88
2021/06/19 01:23:45;;;;;;;13.00;5.27;;;25.40;71.20;;;;;;6186122;23;20404;-88
2021/06/19 01:26:15;;;;;;;14.13;5.43;;;25.20;73.40;;;;;;6200594;23;20406;-88
2021/06/19 01:28:42;;;;;;;19.70;7.93;;;25.10;73.90;;;;;;6189742;23;20433;-88
2021/06/19 01:31:09;;;;;;;13.60;5.97;;;25.10;75.50;;;;;;6186561;23;20400;-88
2021/06/19 01:33:37;;;;;;;12.10;6.00;;;25.00;75.90;;;;;;6186154;23;20408;-88
2021/06/19 01:36:05;;;;;;;14.20;5.50;;;25.00;75.70;;;;;;6185684;23;20410;-88
2021/06/19 01:38:32;;;;;;;14.40;6.13;;;25.10;75.80;;;;;;6185439;23;20441;-88
2021/06/19 01:40:59;;;;;;;13.67;5.40;;;25.20;75.20;;;;;;6185759;23;20777;-88
2021/06/19 01:43:27;;;;;;;14.37;6.07;;;25.10;73.90;;;;;;6185780;23;20409;-88
2021/06/19 01:45:53;;;;;;;13.20;5.67;;;25.10;75.30;;;;;;6185568;23;20409;-88
2021/06/19 01:48:20;;;;;;;13.97;5.67;;;25.10;76.90;;;;;;6186278;23;20809;-88
2021/06/19 01:50:47;;;;;;;14.47;6.77;;;25.00;76.60;;;;;;6186028;23;20471;-89
2021/06/19 01:53:13;;;;;;;18.97;6.80;;;25.00;76.80;;;;;;6186173;23;20413;-89
2021/06/19 01:55:41;;;;;;;9.60;5.20;;;24.90;77.50;;;;;;6185958;23;20436;-88
2021/06/19 01:58:07;;;;;;;13.73;6.47;;;25.00;77.50;;;;;;6190418;23;20437;-87
2021/06/19 02:00:36;;;;;;;13.00;6.10;;;25.00;77.40;;;;;;6211860;23;20411;-88
2021/06/19 02:03:03;;;;;;;15.20;6.90;;;25.00;77.10;;;;;;6211239;23;20385;-88
2021/06/19 02:05:30;;;;;;;15.73;6.20;;;25.00;77.10;;;;;;6203671;23;20420;-88
2021/06/19 02:07:58;;;;;;;13.33;6.60;;;25.10;77.10;;;;;;6192577;23;20418;-88
2021/06/19 02:10:28;;;;;;;11.83;5.23;;;25.10;76.10;;;;;;6211331;23;20390;-88
2021/06/19 02:12:56;;;;;;;14.77;6.00;;;25.20;74.90;;;;;;6207102;23;20394;-88
2021/06/19 02:15:24;;;;;;;16.70;6.63;;;25.20;74.90;;;;;;6188421;23;20401;-89
2021/06/19 02:17:54;;;;;;;14.23;5.43;;;25.10;74.70;;;;;;6200218;23;20529;-88
2021/06/19 02:20:22;;;;;;;16.50;6.00;;;25.20;74.70;;;;;;6208400;23;20436;-88
2021/06/19 02:22:50;;;;;;;14.17;6.20;;;25.20;74.20;;;;;;6186029;23;20917;-88
2021/06/19 02:25:19;;;;;;;10.63;5.60;;;25.20;75.10;;;;;;6185224;23;20417;-88
2021/06/19 02:27:48;;;;;;;12.63;6.43;;;25.20;74.80;;;;;;6186515;23;20421;-88
2021/06/19 02:30:15;;;;;;;14.80;6.20;;;25.20;75.00;;;;;;6185580;23;20426;-89
2021/06/19 02:32:43;;;;;;;11.13;6.40;;;25.20;74.70;;;;;;6195595;23;20397;-88
2021/06/19 02:35:13;;;;;;;16.37;6.33;;;25.20;74.60;;;;;;6192453;23;20392;-88
2021/06/19 02:37:40;;;;;;;14.13;5.80;;;25.00;74.80;;;;;;6185197;23;20452;-88
2021/06/19 02:40:09;;;;;;;14.07;6.53;;;24.90;76.40;;;;;;6185333;23;20460;-89
2021/06/19 02:42:35;;;;;;;12.43;6.57;;;24.80;77.00;;;;;;6185853;23;20414;-89
2021/06/19 02:45:10;;;;;;;13.43;5.80;;;24.80;76.80;;;;;;6210156;23;20479;-88
2021/06/19 02:47:36;;;;;;;15.00;5.93;;;24.80;76.70;;;;;;6194985;23;20480;-88
2021/06/19 02:50:04;;;;;;;14.57;6.80;;;24.80;76.80;;;;;;6188033;23;20451;-88
2021/06/19 02:52:33;;;;;;;13.83;6.20;;;24.80;76.50;;;;;;6185677;23;20420;-88
2021/06/19 02:55:00;;;;;;;12.90;5.80;;;24.80;76.70;;;;;;6193528;23;20417;-88
2021/06/19 02:57:27;;;;;;;9.20;5.50;;;24.80;76.60;;;;;;6193725;23;20425;-87
2021/06/19 02:59:54;;;;;;;14.13;6.80;;;24.70;77.00;;;;;;6192956;23;20453;-88
2021/06/19 03:02:21;;;;;;;12.33;6.77;;;24.70;78.00;;;;;;6187853;23;20431;-88
2021/06/19 03:04:48;;;;;;;13.10;6.77;;;24.60;78.90;;;;;;6188836;23;20408;-88
2021/06/19 03:07:15;;;;;;;15.07;6.50;;;24.50;79.10;;;;;;6192291;23;20425;-88
2021/06/19 03:09:42;;;;;;;14.20;6.17;;;24.60;79.40;;;;;;6191016;23;20397;-89
2021/06/19 03:12:10;;;;;;;9.63;6.00;;;24.50;79.60;;;;;;6187572;23;20409;-89
2021/06/19 03:14:36;;;;;;;15.87;7.60;;;24.50;80.70;;;;;;6187424;23;20919;-89
2021/06/19 03:17:03;;;;;;;13.47;6.33;;;24.50;81.90;;;;;;6187303;23;20792;-88
2021/06/19 03:19:30;;;;;;;14.90;7.90;;;24.50;83.10;;;;;;6186511;23;20444;-89
2021/06/19 03:21:58;;;;;;;14.33;7.20;;;24.60;83.70;;;;;;6187400;23;20408;-88
2021/06/19 03:24:25;;;;;;;13.33;6.77;;;24.60;84.30;;;;;;6187707;23;20409;-88
2021/06/19 03:26:54;;;;;;;14.20;6.87;;;24.50;84.90;;;;;;6201721;23;20412;-89
2021/06/19 03:29:21;;;;;;;14.13;7.50;;;24.50;85.00;;;;;;6207025;23;20407;-88
2021/06/19 03:31:48;;;;;;;12.90;7.57;;;24.50;85.50;;;;;;6207789;23;20435;-88
2021/06/19 03:34:14;;;;;;;14.07;8.57;;;24.40;86.30;;;;;;6211624;23;20391;-88
2021/06/19 03:36:41;;;;;;;13.20;7.30;;;24.30;87.40;;;;;;6208102;23;20402;-88
2021/06/19 03:39:08;;;;;;;18.47;7.50;;;24.20;88.10;;;;;;6194611;23;20440;-88
2021/06/19 03:41:35;;;;;;;13.67;8.93;;;24.10;88.90;;;;;;6201317;23;20392;-88
2021/06/19 03:44:04;;;;;;;14.47;8.60;;;24.00;89.30;;;;;;6205268;23;20406;-90
2021/06/19 03:46:31;;;;;;;15.17;7.73;;;24.00;90.00;;;;;;6186583;23;20904;-88
2021/06/19 03:48:58;;;;;;;14.37;8.90;;;23.80;90.40;;;;;;6186280;23;20420;-89
2021/06/19 03:51:24;;;;;;;18.33;7.50;;;23.80;90.90;;;;;;6186596;23;20478;-88
2021/06/19 03:53:51;;;;;;;16.37;8.30;;;23.70;91.20;;;;;;6186824;23;20411;-89
2021/06/19 03:56:18;;;;;;;15.60;9.03;;;23.70;91.70;;;;;;6185706;23;20410;-89
2021/06/19 03:58:44;;;;;;;14.50;8.60;;;23.60;92.20;;;;;;6202345;23;20930;-89
2021/06/19 04:01:13;;;;;;;13.80;8.73;;;23.60;92.30;;;;;;6186070;23;20412;-89
2021/06/19 04:03:40;;;;;;;14.90;8.40;;;23.70;92.40;;;;;;6186113;23;20403;-89
2021/06/19 04:06:06;;;;;;;15.13;8.53;;;23.70;92.50;;;;;;6186393;23;20797;-89
2021/06/19 04:08:33;;;;;;;12.90;6.97;;;23.70;92.60;;;;;;6187864;23;20423;-89
2021/06/19 04:11:00;;;;;;;15.53;8.10;;;23.70;92.70;;;;;;6186868;23;20415;-88
2021/06/19 04:13:27;;;;;;;15.97;8.73;;;23.70;92.60;;;;;;6186201;23;20408;-89
2021/06/19 04:15:53;;;;;;;14.67;8.30;;;23.80;92.70;;;;;;6185747;23;20400;-88
2021/06/19 04:18:22;;;;;;;20.77;8.37;;;23.80;92.90;;;;;;6186113;23;20961;-89
2021/06/19 04:20:55;;;;;;;13.80;7.10;;;23.70;92.90;;;;;;6189106;23;20482;-88
2021/06/19 04:23:22;;;;;;;12.67;8.07;;;23.70;93.30;;;;;;6189220;23;20404;-88
2021/06/19 04:25:49;;;;;;;19.57;8.80;;;23.70;93.40;;;;;;6188419;23;20407;-87
2021/06/19 04:28:15;;;;;;;21.80;8.60;;;23.70;93.50;;;;;;6212628;23;20412;-88
2021/06/19 04:30:42;;;;;;;17.53;8.73;;;23.70;93.60;;;;;;6199107;23;20407;-88
2021/06/19 04:33:09;;;;;;;16.20;8.50;;;23.80;93.70;;;;;;6187696;23;20411;-88
2021/06/19 04:35:46;;;;;;;14.47;8.73;;;23.80;93.60;;;;;;6195398;23;20742;-88
2021/06/19 04:38:13;;;;;;;14.87;8.30;;;23.80;93.70;;;;;;6188080;23;20486;-88
2021/06/19 04:40:44;;;;;;;17.97;8.60;;;23.80;93.60;;;;;;6190794;23;20484;-89
2021/06/19 04:43:11;;;;;;;20.20;9.00;;;23.90;93.80;;;;;;6188671;23;20875;-88
2021/06/19 04:45:39;;;;;;;16.03;8.87;;;24.10;93.60;;;;;;6188492;23;20416;-88
2021/06/19 04:48:08;;;;;;;13.00;7.83;;;24.20;93.20;;;;;;6205147;23;20487;-89
2021/06/19 04:50:38;;;;;;;16.50;9.30;;;24.30;92.60;;;;;;6212682;23;20428;-91
2021/06/19 04:53:06;;;;;;;17.47;8.80;;;24.50;92.50;;;;;;6197259;23;20388;-91
2021/06/19 04:55:33;;;;;;;15.27;8.97;;;24.50;92.10;;;;;;6211542;23;20400;-92
2021/06/19 04:58:02;;;;;;;16.97;9.47;;;24.70;91.90;;;;;;6201307;23;20427;-91
2021/06/19 05:00:30;;;;;;;17.70;9.20;;;24.70;91.50;;;;;;6197899;23;20923;-91
2021/06/19 05:02:57;;;;;;;16.53;10.00;;;24.70;91.70;;;;;;6201433;23;20436;-91
2021/06/19 05:05:27;;;;;;;14.50;8.70;;;24.70;91.30;;;;;;6202936;23;20410;-91
2021/06/19 05:07:55;;;;;;;16.70;8.97;;;24.80;91.50;;;;;;6204680;23;20430;-91
2021/06/19 05:10:22;;;;;;;15.47;8.97;;;24.80;91.20;;;;;;6198205;23;20488;-92
2021/06/19 05:12:49;;;;;;;15.10;7.80;;;24.80;91.20;;;;;;6200919;23;20417;-91
2021/06/19 05:15:21;;;;;;;17.80;8.47;;;24.80;91.10;;;;;;6199156;23;20423;-91
2021/06/19 05:17:47;;;;;;;15.27;8.90;;;24.80;91.60;;;;;;6199960;23;20448;-91
2021/06/19 05:20:15;;;;;;;15.53;8.97;;;24.80;91.10;;;;;;6201422;23;20520;-90
2021/06/19 05:22:42;;;;;;;14.87;8.80;;;24.90;91.90;;;;;;6199691;23;20397;-92
2021/06/19 05:25:13;;;;;;;16.87;9.33;;;25.30;90.90;;;;;;6199948;23;20405;-91
2021/06/19 05:27:40;;;;;;;16.30;10.00;;;25.90;89.90;;;;;;6191389;23;20480;-91
2021/06/19 05:30:08;;;;;;;15.33;8.77;;;26.40;87.20;;;;;;6193469;23;20421;-91
2021/06/19 05:32:34;;;;;;;12.37;8.03;;;26.90;83.30;;;;;;6193435;23;20422;-91
2021/06/19 05:35:01;;;;;;;14.23;8.83;;;27.50;81.20;;;;;;6190969;23;20414;-91
2021/06/19 05:37:28;;;;;;;14.30;8.50;;;28.00;78.60;;;;;;6189536;23;20426;-92
2021/06/19 05:39:55;;;;;;;15.50;8.40;;;28.30;76.40;;;;;;6187729;23;20437;-91
2021/06/19 05:42:23;;;;;;;13.93;8.93;;;28.50;74.90;;;;;;6187724;23;20414;-91
2021/06/19 05:44:50;;;;;;;17.47;8.30;;;28.70;73.60;;;;;;6189466;23;21076;-91
2021/06/19 05:47:17;;;;;;;14.87;8.53;;;29.00;73.30;;;;;;6194293;23;20487;-91
2021/06/19 05:49:43;;;;;;;17.43;9.70;;;29.20;72.20;;;;;;6195127;23;20410;-91
2021/06/19 05:52:10;;;;;;;18.90;8.57;;;29.30;71.90;;;;;;6190711;23;20410;-91
2021/06/19 05:54:37;;;;;;;13.37;9.13;;;29.50;71.10;;;;;;6190715;23;20402;-90
2021/06/19 05:57:04;;;;;;;15.70;8.10;;;29.50;70.50;;;;;;6194548;23;20441;-90
2021/06/19 05:59:32;;;;;;;12.87;8.60;;;29.60;69.50;;;;;;6192221;23;20441;-90
2021/06/19 06:02:02;;;;;;;17.70;8.87;;;29.60;69.70;;;;;;6207379;23;20448;-90
2021/06/19 06:04:28;;;;;;;16.13;9.20;;;29.90;68.80;;;;;;6204502;23;20394;-83
2021/06/19 06:06:55;;;;;;;13.07;8.73;;;30.20;67.50;;;;;;6218266;23;20400;-90
2021/06/19 06:09:25;;;;;;;16.00;9.50;;;30.70;66.40;;;;;;6216252;23;20425;-90
2021/06/19 06:12:00;;;;;;;12.40;8.40;;;31.10;64.90;;;;;;6215530;23;20396;-90
2021/06/19 06:14:37;;;;;;;16.43;8.17;;;31.50;63.90;;;;;;6210903;23;20424;-90
2021/06/19 06:17:30;;;;;;;17.27;9.03;;;32.00;61.00;;;;;;6195193;23;20397;-91
2021/06/19 06:20:00;;;;;;;10.53;7.67;;;32.50;60.30;;;;;;6202031;23;20449;-90
2021/06/19 06:22:58;;;;;;;12.37;7.80;;;32.90;58.50;;;;;;6188597;23;20394;-90
2021/06/19 06:25:39;;;;;;;14.30;8.80;;;33.20;57.80;;;;;;6185602;23;20437;-90
2021/06/19 06:28:15;;;;;;;10.83;7.67;;;33.30;56.90;;;;;;6206696;23;20366;-90
2021/06/19 06:30:43;;;;;;;11.10;7.63;;;33.80;56.90;;;;;;6209088;23;20429;-90
2021/06/19 06:33:12;;;;;;;12.70;7.43;;;33.60;55.90;;;;;;6191405;23;20394;-91
2021/06/19 06:38:30;;;;;;;10.87;7.87;;;33.90;55.30;;;;;;6186528;23;20797;-91
2021/06/19 06:41:03;;;;;;;10.90;8.00;;;34.30;54.60;;;;;;6188692;23;20413;-91
2021/06/19 06:43:32;;;;;;;15.67;8.77;;;34.20;54.10;;;;;;6201483;23;20404;-92
2021/06/19 06:45:59;;;;;;;11.20;8.10;;;34.30;54.10;;;;;;6208432;23;20430;-91
2021/06/19 06:48:32;;;;;;;12.53;7.93;;;34.90;53.50;;;;;;6194467;23;20437;-92
2021/06/19 06:51:04;;;;;;;12.30;8.87;;;35.10;52.70;;;;;;6190106;23;20798;-92
2021/06/19 06:53:46;;;;;;;15.67;7.53;;;35.20;52.00;;;;;;6189420;23;20386;-92
2021/06/19 06:56:15;;;;;;;13.77;9.33;;;34.60;52.90;;;;;;6187451;23;20481;-92
2021/06/19 06:58:45;;;;;;;14.43;7.70;;;34.90;53.10;;;;;;6188001;23;20720;-93
2021/06/19 07:01:18;;;;;;;10.10;7.37;;;34.90;52.20;;;;;;6188657;23;20414;-92
2021/06/19 07:03:56;;;;;;;12.40;7.27;;;34.90;52.00;;;;;;6187796;23;20418;-91
2021/06/19 07:06:23;;;;;;;13.00;8.10;;;35.10;52.20;;;;;;6186869;23;20473;-91
2021/06/19 07:08:51;;;;;;;15.50;7.80;;;35.40;51.50;;;;;;6188525;23;20414;-92
2021/06/19 07:11:23;;;;;;;9.90;6.90;;;35.80;50.50;;;;;;6189429;23;20478;-91
2021/06/19 07:13:53;;;;;;;10.90;7.90;;;36.10;50.00;;;;;;6206974;23;20391;-92
2021/06/19 07:16:28;;;;;;;14.20;8.23;;;36.50;49.20;;;;;;6189702;23;20468;-91
2021/06/19 07:18:59;;;;;;;13.10;7.47;;;36.30;49.00;;;;;;6198526;23;20394;-90
2021/06/19 07:21:52;;;;;;;13.70;7.87;;;36.40;49.00;;;;;;6186655;23;20426;-91
2021/06/19 07:24:24;;;;;;;14.90;7.23;;;36.60;48.80;;;;;;6190076;23;20432;-91
2021/06/19 07:26:54;;;;;;;9.63;7.43;;;36.90;48.40;;;;;;6210350;23;20390;-91
2021/06/19 07:29:29;;;;;;;10.93;7.20;;;36.90;47.50;;;;;;6208448;23;20410;-92
2021/06/19 07:32:03;;;;;;;10.00;7.27;;;37.60;47.00;;;;;;6200341;23;20414;-91
2021/06/19 07:34:45;;;;;;;12.40;7.47;;;38.00;45.60;;;;;;6209561;23;20518;-91
2021/06/19 07:37:14;;;;;;;10.33;6.87;;;37.90;45.70;;;;;;6190190;23;20410;-91
2021/06/19 07:40:00;;;;;;;10.30;6.50;;;38.40;45.50;;;;;;6187929;23;20798;-91
2021/06/19 07:45:32;;;;;;;12.00;7.23;;;39.30;43.50;;;;;;6197672;23;20444;-91
2021/06/19 07:54:18;;;;;;;11.70;7.90;;;38.30;44.00;;;;;;6176877;23;20406;-92
2021/06/19 07:57:01;;;;;;;13.43;8.23;;;37.80;45.40;;;;;;6189393;23;20416;-91
2021/06/19 07:59:29;;;;;;;8.30;7.40;;;38.50;44.50;;;;;;6191239;23;20437;-91
2021/06/19 08:02:25;;;;;;;12.40;8.60;;;38.40;44.20;;;;;;6189233;23;20441;-92
2021/06/19 08:05:45;;;;;;;10.20;7.47;;;38.90;43.50;;;;;;6190825;23;20468;-91
2021/06/19 08:08:42;;;;;;;11.33;8.00;;;39.20;42.50;;;;;;6144566;23;20476;-92
2021/06/19 08:12:00;;;;;;;12.10;8.17;;;39.70;41.80;;;;;;6186091;23;20437;-92
2021/06/19 08:28:26;;;;;;;17.23;9.37;;;39.30;42.60;;;;;;6195181;23;20405;-92
2021/06/19 08:51:33;;;;;;;16.27;8.20;;;40.70;40.60;;;;;;6214103;23;20441;-90
2021/06/19 08:54:50;;;;;;;;;;;;;;;;;;;;;
2021/06/19 09:11:42;;;;;;;9.93;7.83;;;41.90;38.00;;;;;;6169864;23;20413;-91
2021/06/19 09:32:12;;;;;;;12.40;8.37;;;41.50;38.40;;;;;;6212160;23;20424;-91
2021/06/19 09:38:42;;;;;;;12.97;8.77;;;42.30;37.80;;;;;;6044624;23;20398;-91
2021/06/19 09:42:02;;;;;;;10.37;8.47;;;41.50;38.70;;;;;;6098739;23;20956;-91
2021/06/19 09:44:58;;;;;;;10.67;8.60;;;41.80;38.50;;;;;;6186058;23;20544;-92
2021/06/19 09:47:43;;;;;;;10.20;8.37;;;42.00;37.80;;;;;;6185393;23;20413;-90
2021/06/19 09:50:15;;;;;;;12.13;9.17;;;41.40;38.10;;;;;;6186153;23;20430;-90
2021/06/19 09:52:47;;;;;;;11.53;8.37;;;41.40;38.20;;;;;;6187763;23;20437;-91
2021/06/19 09:55:17;;;;;;;12.90;8.50;;;42.00;37.70;;;;;;6187870;23;20454;-90
2021/06/19 09:57:47;;;;;;;10.07;7.80;;;42.90;37.10;;;;;;6197192;23;20473;-91
2021/06/19 10:01:14;;;;;;;11.20;8.80;;;43.50;36.20;;;;;;6199694;23;20422;-95
2021/06/19 10:04:04;;;;;;;15.00;8.30;;;44.10;35.60;;;;;;6198216;23;20441;-91
2021/06/19 10:06:46;;;;;;;10.93;8.30;;;43.50;35.70;;;;;;6195342;23;20429;-91
2021/06/19 10:09:22;;;;;;;13.10;8.87;;;42.80;36.90;;;;;;6186266;23;20417;-92
2021/06/19 10:12:01;;;;;;;12.70;9.03;;;43.00;36.80;;;;;;6186338;23;20374;-92
2021/06/19 10:14:52;;;;;;;12.83;8.90;;;43.20;36.00;;;;;;6184333;23;20437;-92
2021/06/19 10:17:27;;;;;;;16.33;9.50;;;44.00;35.40;;;;;;6185144;23;20417;-91
2021/06/19 10:20:00;;;;;;;13.17;8.50;;;44.00;36.10;;;;;;6187575;23;20484;-92
2021/06/19 10:22:34;;;;;;;13.63;9.07;;;44.20;35.60;;;;;;6194583;23;20788;-92
2021/06/19 10:25:22;;;;;;;14.57;8.33;;;42.90;37.10;;;;;;6203327;23;20505;-91
2021/06/19 10:27:58;;;;;;;14.27;8.57;;;43.80;36.00;;;;;;6168382;23;20429;-92
2021/06/19 10:30:51;;;;;;;13.60;9.03;;;44.60;34.80;;;;;;6211840;23;20401;-91
2021/06/19 10:34:22;;;;;;;9.90;7.97;;;44.70;35.40;;;;;;6175181;23;20410;-92
2021/06/19 10:37:41;;;;;;;11.17;7.27;;;44.30;34.90;;;;;;6014996;23;20688;-92
2021/06/19 10:41:03;;;;;;;14.37;7.50;;;43.70;35.50;;;;;;6026918;23;20474;-92
2021/06/19 10:44:07;;;;;;;;;;;;;;;;;;;;;
2021/06/19 10:47:05;;;;;;;10.67;7.77;;;41.90;36.70;;;;;;6127364;23;20403;-92
2021/06/19 10:50:26;;;;;;;11.83;8.43;;;41.20;38.20;;;;;;6155705;23;20415;-91
2021/06/19 10:53:30;;;;;;;15.40;7.93;;;41.20;37.10;;;;;;6157179;23;20434;-91
2021/06/19 10:56:40;;;;;;;14.47;7.27;;;42.10;36.30;;;;;;6156983;23;20438;-91
2021/06/19 10:59:36;;;;;;;12.67;7.00;;;40.80;37.60;;;;;;6155696;23;20430;-91
2021/06/19 11:02:50;;;;;;;12.73;7.60;;;41.30;37.50;;;;;;6155587;23;20419;-91
2021/06/19 11:06:11;;;;;;;;;;;;;;;;;;;;;
2021/06/19 11:09:13;;;;;;;11.53;6.47;;;39.80;39.00;;;;;;6157360;23;20376;-91
2021/06/19 11:12:11;;;;;;;14.17;6.73;;;40.70;37.50;;;;;;6157804;23;20405;-91
2021/06/19 11:15:36;;;;;;;11.00;6.70;;;41.30;35.50;;;;;;6158198;23;20430;-91
2021/06/19 11:18:21;;;;;;;11.23;7.03;;;41.60;36.20;;;;;;6095546;23;20416;-90
2021/06/19 11:21:24;;;;;;;12.43;7.40;;;42.50;35.90;;;;;;6096157;23;20478;-91
2021/06/19 11:27:52;;;;;;;16.77;6.03;;;43.40;33.50;;;;;;6082907;23;20499;-91
2021/06/19 11:37:48;;;;;;;9.17;7.30;;;45.30;30.20;;;;;;6188423;23;20405;-90
2021/06/19 11:40:40;;;;;;;13.10;7.43;;;43.10;33.00;;;;;;6187466;23;20437;-90
2021/06/19 11:43:44;;;;;;;9.90;8.27;;;42.50;34.20;;;;;;6187584;23;21032;-91
2021/06/19 11:46:21;;;;;;;9.43;7.47;;;42.40;35.50;;;;;;6188835;23;20464;-91
2021/06/19 11:49:19;;;;;;;13.37;8.30;;;42.80;33.30;;;;;;6187038;23;20413;-91
2021/06/19 11:52:00;;;;;;;9.90;7.90;;;42.80;33.90;;;;;;6186780;23;20401;-91
2021/06/19 11:55:13;;;;;;;10.63;7.20;;;42.90;34.30;;;;;;6186544;23;20409;-90
2021/06/19 12:01:28;;;;;;;10.87;6.57;;;43.30;33.80;;;;;;6206490;23;20513;-91
2021/06/19 12:04:16;;;;;;;12.63;6.13;;;43.40;32.70;;;;;;6143851;23;20510;-91
2021/06/19 12:06:58;;;;;;;11.60;7.83;;;44.00;32.00;;;;;;6208873;23;20552;-87
2021/06/19 12:09:29;;;;;;;12.63;8.00;;;44.60;31.80;;;;;;6216284;23;20452;-88
2021/06/19 12:11:57;;;;;;;11.67;7.93;;;43.40;32.90;;;;;;6217305;23;20802;-88
2021/06/19 12:15:02;;;;;;;11.57;7.00;;;42.30;34.40;;;;;;6216915;23;20408;-88
2021/06/19 12:21:20;;;;;;;11.37;7.97;;;43.50;33.00;;;;;;6175034;23;20454;-89
2021/06/19 12:24:38;;;;;;;12.07;7.30;;;44.40;32.50;;;;;;6187205;23;20713;-88
2021/06/19 12:27:43;;;;;;;11.97;6.73;;;44.80;32.10;;;;;;6185973;23;20436;-88
2021/06/19 12:30:33;;;;;;;12.13;7.00;;;43.40;33.30;;;;;;6156307;23;20468;-89
2021/06/19 12:36:55;;;;;;;10.43;6.33;;;43.50;33.10;;;;;;6184508;23;20509;-88
2021/06/19 12:42:45;;;;;;;13.30;6.63;;;45.90;29.70;;;;;;6173372;23;20513;-88
2021/06/19 12:45:14;;;;;;;10.50;6.53;;;47.00;29.00;;;;;;6187274;23;20430;-86
2021/06/19 12:47:44;;;;;;;10.60;6.33;;;45.80;28.70;;;;;;6187228;23;20782;-88
2021/06/19 12:50:13;;;;;;;12.63;6.33;;;45.60;28.50;;;;;;6186450;23;20409;-88
2021/06/19 12:53:00;;;;;;;13.33;6.43;;;44.60;28.20;;;;;;6186349;23;20413;-86
2021/06/19 12:55:32;;;;;;;18.30;7.17;;;43.80;28.90;;;;;;6185387;23;20425;-86
2021/06/19 12:58:07;;;;;;;9.83;5.00;;;43.70;28.70;;;;;;6185664;23;20389;-87
2021/06/19 13:00:43;;;;;;;8.87;5.67;;;43.60;28.90;;;;;;6185046;23;20437;-86
2021/06/19 13:03:11;;;;;;;16.57;6.50;;;44.30;28.80;;;;;;6186228;23;20398;-87
2021/06/19 13:05:52;;;;;;;12.00;5.90;;;43.40;29.10;;;;;;6185810;23;20433;-88
2021/06/19 13:08:20;;;;;;;11.00;6.17;;;43.10;29.90;;;;;;6186122;23;20730;-88
2021/06/19 13:10:49;;;;;;;12.00;5.50;;;44.20;29.70;;;;;;6185255;23;20405;-88
2021/06/19 13:13:16;;;;;;;11.30;6.10;;;45.10;29.20;;;;;;6185393;23;20414;-88
2021/06/19 13:15:59;;;;;;;11.10;6.10;;;45.80;28.20;;;;;;6186653;23;20425;-87
2021/06/19 13:18:27;;;;;;;12.07;5.87;;;45.70;28.30;;;;;;6185396;23;20405;-87
2021/06/19 13:21:08;;;;;;;13.57;5.53;;;44.70;28.60;;;;;;6186168;23;21062;-86
2021/06/19 13:23:35;;;;;;;12.13;4.90;;;43.80;28.90;;;;;;6187629;23;20397;-87
2021/06/19 13:26:05;;;;;;;9.80;5.90;;;42.70;29.70;;;;;;6185640;23;20426;-87
2021/06/19 13:28:47;;;;;;;14.33;6.10;;;42.30;29.80;;;;;;6186363;23;20413;-88
2021/06/19 13:31:17;;;;;;;12.33;5.57;;;41.90;30.00;;;;;;6186440;23;20390;-87
2021/06/19 13:33:47;;;;;;;13.40;5.97;;;43.00;29.70;;;;;;6185548;23;20497;-88
2021/06/19 13:36:19;;;;;;;12.43;6.03;;;43.60;29.20;;;;;;6185744;23;20764;-88
2021/06/19 13:38:50;;;;;;;15.30;6.27;;;44.10;28.40;;;;;;6185268;23;20410;-87
2021/06/19 13:41:27;;;;;;;14.93;5.90;;;44.20;28.40;;;;;;6185133;23;20437;-88
2021/06/19 13:43:53;;;;;;;10.97;6.10;;;42.60;29.40;;;;;;6185126;23;20382;-88
2021/06/19 13:46:20;;;;;;;13.93;6.70;;;42.00;31.10;;;;;;6184485;23;20430;-87
2021/06/19 13:48:47;;;;;;;10.70;5.27;;;42.30;30.00;;;;;;6174721;23;20406;-86
2021/06/19 13:51:14;;;;;;;10.90;6.13;;;42.00;30.40;;;;;;6205750;23;20412;-86
2021/06/19 13:53:45;;;;;;;14.30;8.00;;;42.30;30.50;;;;;;6191843;23;20412;-86
2021/06/19 13:56:12;;;;;;;12.93;7.10;;;42.20;30.90;;;;;;6206844;23;20410;-87
2021/06/19 13:58:40;;;;;;;9.77;7.00;;;41.60;31.80;;;;;;6195193;23;20420;-86
2021/06/19 14:01:10;;;;;;;14.33;6.60;;;41.80;32.00;;;;;;6212170;23;20445;-88
2021/06/19 14:03:36;;;;;;;16.30;6.97;;;42.30;31.70;;;;;;6199753;23;20402;-87
2021/06/19 14:06:06;;;;;;;11.97;6.73;;;42.50;31.20;;;;;;6185379;23;20445;-87
2021/06/19 14:08:33;;;;;;;12.47;6.50;;;43.30;30.90;;;;;;6194246;23;20429;-88
2021/06/19 14:10:59;;;;;;;15.97;7.70;;;43.40;30.70;;;;;;6201930;23;20382;-88
2021/06/19 14:13:26;;;;;;;12.77;7.57;;;43.60;30.50;;;;;;6201889;23;20402;-88
2021/06/19 14:15:54;;;;;;;7.37;5.57;;;42.90;30.70;;;;;;6199719;23;20731;-87
2021/06/19 14:18:21;;;;;;;14.13;5.80;;;43.10;31.10;;;;;;6186028;23;21053;-87
2021/06/19 14:20:47;;;;;;;11.40;6.80;;;42.40;31.30;;;;;;6189725;23;20410;-88
2021/06/19 14:23:14;;;;;;;10.07;7.50;;;42.10;31.90;;;;;;6196672;23;20462;-87
2021/06/19 14:25:41;;;;;;;10.57;6.93;;;40.90;34.20;;;;;;6188867;23;20438;-87
2021/06/19 14:28:08;;;;;;;12.60;8.47;;;39.70;36.50;;;;;;6187710;23;20409;-86
2021/06/19 14:30:35;;;;;;;11.27;7.17;;;38.40;38.40;;;;;;6186229;23;20401;-86
2021/06/19 14:33:03;;;;;;;13.73;8.23;;;37.70;40.20;;;;;;6185895;23;20492;-87
2021/06/19 14:35:30;;;;;;;17.20;8.57;;;37.70;40.50;;;;;;6185869;23;20421;-89
2021/06/19 14:37:56;;;;;;;13.23;8.03;;;37.40;40.70;;;;;;6184520;23;20872;-88
2021/06/19 14:40:23;;;;;;;11.43;7.90;;;36.90;42.00;;;;;;6185250;23;20413;-89
2021/06/19 14:42:50;;;;;;;12.87;7.93;;;36.70;42.00;;;;;;6186370;23;20437;-88
2021/06/19 14:45:17;;;;;;;15.77;7.97;;;36.40;42.70;;;;;;6188042;23;20430;-87
2021/06/19 14:47:43;;;;;;;12.63;8.20;;;36.20;43.00;;;;;;6187382;23;20405;-87
2021/06/19 14:50:12;;;;;;;14.80;9.43;;;36.20;43.30;;;;;;6185848;23;20418;-88
2021/06/19 14:52:39;;;;;;;16.27;9.23;;;35.70;43.60;;;;;;6187080;23;20931;-87
2021/06/19 14:55:07;;;;;;;12.60;7.60;;;35.40;44.30;;;;;;6186518;23;20425;-88
2021/06/19 14:57:34;;;;;;;13.70;7.50;;;35.30;45.70;;;;;;6186226;23;20402;-86
2021/06/19 15:00:01;;;;;;;10.37;8.13;;;35.50;46.00;;;;;;6197154;23;20436;-87
2021/06/19 15:02:27;;;;;;;14.63;8.63;;;35.60;45.20;;;;;;6190213;23;20429;-88